createdAt,value
2022-08-30T00:00:08.303Z,2.5
2022-08-30T00:01:07.272Z,2.200
2022-08-30T00:02:26.950Z,2.299
2022-08-30T00:03:07.680Z,2.099
2022-08-30T00:04:07.580Z,2
2022-08-30T00:05:07.237Z,2.299
2022-08-30T00:07:07.574Z,2.099
2022-08-30T00:08:07.171Z,2.200
2022-08-30T00:09:07.211Z,2.400
2022-08-30T00:10:07.543Z,2.299
2022-08-30T00:11:07.991Z,2.5
2022-08-30T00:12:07.673Z,2.299
2022-08-30T00:13:07.362Z,2.700
2022-08-30T00:14:07.625Z,2.599
2022-08-30T00:15:07.386Z,2.200
2022-08-30T00:16:07.680Z,2.299
2022-08-30T00:17:07.322Z,2
2022-08-30T00:18:07.525Z,2.299
2022-08-30T00:19:08.067Z,2.200
2022-08-30T00:20:07.550Z,2.299
2022-08-30T00:21:07.539Z,2.099
2022-08-30T00:24:07.317Z,2.5
2022-08-30T00:25:07.736Z,2.099
2022-08-30T00:26:07.271Z,2.5
2022-08-30T00:27:07.466Z,2.200
2022-08-30T00:28:07.627Z,2.299
2022-08-30T00:29:06.982Z,2.200
2022-08-30T00:30:07.407Z,2.400
2022-08-30T00:31:07.780Z,2.200
2022-08-30T00:32:07.369Z,2.5
2022-08-30T00:33:07.740Z,2.299
2022-08-30T00:34:07.275Z,2.400
2022-08-30T00:35:07.462Z,1.899
2022-08-30T00:36:07.532Z,2
2022-08-30T00:37:07.843Z,2.400
2022-08-30T00:38:07.273Z,2.099
2022-08-30T00:40:08.122Z,2.200
2022-08-30T00:41:07.424Z,2
2022-08-30T00:42:07.536Z,2.200
2022-08-30T00:43:07.760Z,2.299
2022-08-30T00:44:07.208Z,2.200
2022-08-30T00:45:07.533Z,2.599
2022-08-30T00:46:07.235Z,2.099
2022-08-30T00:47:07.717Z,2.5
2022-08-30T00:48:07.132Z,2.400
2022-08-30T00:49:07.255Z,2.700
2022-08-30T00:50:07.513Z,2.299
2022-08-30T00:52:07.379Z,2.200
2022-08-30T00:53:07.651Z,2.099
2022-08-30T00:54:07.192Z,2.299
2022-08-30T00:55:07.450Z,2.5
2022-08-30T00:56:07.477Z,2.299
2022-08-30T00:57:07.573Z,2.099
2022-08-30T00:58:07.558Z,2.599
2022-08-30T00:59:07.634Z,2.299
2022-08-30T01:00:08.622Z,2.5
2022-08-30T01:01:07.584Z,2.200
2022-08-30T01:02:07.196Z,2.299
2022-08-30T01:03:07.604Z,2.099
2022-08-30T01:04:07.627Z,2.299
2022-08-30T01:05:07.872Z,2.5
2022-08-30T01:07:07.334Z,2.200
2022-08-30T01:08:07.476Z,2.299
2022-08-30T01:10:07.814Z,2.200
2022-08-30T01:11:07.188Z,2.299
2022-08-30T01:13:07.270Z,2.5
2022-08-30T01:14:07.528Z,2.099
2022-08-30T01:15:08.115Z,2.5
2022-08-30T01:16:07.413Z,2.099
2022-08-30T01:17:07.632Z,2.5
2022-08-30T01:18:07.824Z,2.299
2022-08-30T01:21:07.774Z,2.200
2022-08-30T01:22:07.291Z,2.299
2022-08-30T01:23:07.430Z,2.200
2022-08-30T01:24:07.622Z,2.5
2022-08-30T01:26:07.423Z,2.099
2022-08-30T01:27:07.457Z,2.299
2022-08-30T01:28:07.682Z,2.099
2022-08-30T01:29:07.108Z,2.299
2022-08-30T01:30:07.716Z,2.5
2022-08-30T01:31:07.285Z,2.599
2022-08-30T01:32:07.942Z,2.299
2022-08-30T01:33:07.361Z,2.400
2022-08-30T01:34:07.473Z,2.200
2022-08-30T01:35:07.679Z,2.299
2022-08-30T01:36:07.285Z,2.200
2022-08-30T01:37:07.547Z,2.400
2022-08-30T01:38:07.327Z,2.299
2022-08-30T01:40:07.273Z,2.400
2022-08-30T01:41:07.269Z,2.299
2022-08-30T01:42:07.382Z,2.599
2022-08-30T01:43:07.476Z,2.5
2022-08-30T01:44:07.692Z,2.400
2022-08-30T01:45:07.192Z,2.200
2022-08-30T01:46:07.548Z,2.299
2022-08-30T01:48:07.434Z,2.400
2022-08-30T01:49:07.916Z,2.599
2022-08-30T01:50:07.299Z,2.5
2022-08-30T01:51:07.285Z,2.299
2022-08-30T01:52:07.341Z,2.5
2022-08-30T01:53:07.238Z,2.299
2022-08-30T01:54:07.304Z,2.5
2022-08-30T01:55:07.412Z,2.299
2022-08-30T01:57:07.088Z,2.099
2022-08-30T01:58:07.359Z,2.200
2022-08-30T01:59:07.409Z,2.700
2022-08-30T02:00:08.065Z,2.599
2022-08-30T02:02:07.557Z,2.099
2022-08-30T02:03:07.128Z,2.400
2022-08-30T02:04:07.662Z,2.299
2022-08-30T02:05:07.440Z,2.400
2022-08-30T02:06:07.790Z,2.299
2022-08-30T02:07:07.236Z,2.700
2022-08-30T02:08:07.211Z,2.5
2022-08-30T02:10:07.767Z,2
2022-08-30T02:11:07.212Z,2.400
2022-08-30T02:12:07.321Z,2.5
2022-08-30T02:14:07.669Z,2.299
2022-08-30T02:15:21.874Z,2.099
2022-08-30T02:16:07.216Z,2.799
2022-08-30T02:17:21.401Z,2.400
2022-08-30T02:18:07.789Z,2.5
2022-08-30T02:19:07.101Z,2.299
2022-08-30T02:21:07.254Z,2.400
2022-08-30T02:22:07.325Z,2.700
2022-08-30T02:23:07.400Z,2.5
2022-08-30T02:25:11.197Z,2.200
2022-08-30T02:26:07.087Z,2.599
2022-08-30T02:27:07.534Z,2.200
2022-08-30T02:29:07.056Z,2.400
2022-08-30T02:31:07.534Z,2.5
2022-08-30T02:32:07.048Z,2.200
2022-08-30T02:33:07.488Z,2.599
2022-08-30T02:34:07.316Z,2.700
2022-08-30T02:35:07.767Z,2.599
2022-08-30T02:36:07.037Z,2.299
2022-08-30T02:37:07.337Z,2.400
2022-08-30T02:38:07.318Z,2.5
2022-08-30T02:39:07.732Z,2.599
2022-08-30T02:40:07.492Z,2.700
2022-08-30T02:41:07.752Z,2.299
2022-08-30T02:42:07.127Z,2.400
2022-08-30T02:43:07.264Z,2.599
2022-08-30T02:44:07.516Z,2.5
2022-08-30T02:45:08.015Z,2.299
2022-08-30T02:46:07.528Z,2.599
2022-08-30T02:47:07.494Z,2.799
2022-08-30T02:48:06.870Z,3.400
2022-08-30T02:49:30.316Z,2.299
2022-08-30T02:50:07.340Z,2.400
2022-08-30T02:51:09.521Z,2.200
2022-08-30T02:52:06.967Z,2.599
2022-08-30T02:55:07.671Z,2.099
2022-08-30T02:56:07.782Z,2.200
2022-08-30T02:57:07.029Z,2.599
2022-08-30T02:58:07.220Z,2.400
2022-08-30T02:59:07.595Z,2.200
2022-08-30T03:00:08.655Z,2.5
2022-08-30T03:01:07.403Z,2.200
2022-08-30T03:02:07.855Z,2.799
2022-08-30T03:03:06.903Z,2.299
2022-08-30T03:05:07.291Z,2.400
2022-08-30T03:07:07.641Z,2.5
2022-08-30T03:08:07.144Z,2.599
2022-08-30T03:10:07.708Z,2.900
2022-08-30T03:11:07.830Z,2.400
2022-08-30T03:13:07.279Z,2.700
2022-08-30T03:14:07.462Z,2.400
2022-08-30T03:15:07.704Z,2.599
2022-08-30T03:16:07.418Z,2.299
2022-08-30T03:18:07.803Z,2.5
2022-08-30T03:19:07.218Z,2.299
2022-08-30T03:20:07.871Z,2.599
2022-08-30T03:22:07.172Z,2.5
2022-08-30T03:23:07.773Z,2.799
2022-08-30T03:24:07.512Z,2.400
2022-08-30T03:25:07.047Z,2.599
2022-08-30T03:27:07.333Z,2.5
2022-08-30T03:29:07.674Z,2.299
2022-08-30T03:30:08.057Z,2.099
2022-08-30T03:31:07.575Z,2.599
2022-08-30T03:33:07.243Z,2.700
2022-08-30T03:34:07.154Z,2.5
2022-08-30T03:36:07.266Z,2.400
2022-08-30T03:37:07.702Z,2.5
2022-08-30T03:38:07.048Z,2.599
2022-08-30T03:39:07.542Z,2.5
2022-08-30T03:40:07.268Z,2.799
2022-08-30T03:41:07.562Z,2.700
2022-08-30T03:42:06.989Z,2.599
2022-08-30T03:43:07.579Z,2.5
2022-08-30T03:44:07.933Z,2.400
2022-08-30T03:45:07.620Z,2.599
2022-08-30T03:46:07.176Z,2.299
2022-08-30T03:48:07.188Z,2.799
2022-08-30T03:49:07.330Z,2.700
2022-08-30T03:50:07.781Z,3.200
2022-08-30T03:51:07.171Z,2.599
2022-08-30T03:52:07.794Z,2.5
2022-08-30T03:53:07.077Z,2.900
2022-08-30T03:54:07.476Z,3.099
2022-08-30T03:55:07.328Z,2.299
2022-08-30T03:56:07.473Z,2.700
2022-08-30T03:57:07.884Z,2.5
2022-08-30T03:59:07.828Z,2.400
2022-08-30T04:01:07.722Z,2.700
2022-08-30T04:02:07.186Z,2.599
2022-08-30T04:03:07.523Z,2.700
2022-08-30T04:06:07.364Z,2.5
2022-08-30T04:07:07.525Z,2.799
2022-08-30T04:08:07.047Z,2.599
2022-08-30T04:09:07.164Z,2.5
2022-08-30T04:10:07.486Z,2.400
2022-08-30T04:11:07.692Z,2.700
2022-08-30T04:14:07.526Z,2.5
2022-08-30T04:16:12.201Z,2.799
2022-08-30T04:17:07.738Z,2.299
2022-08-30T04:18:07.304Z,2.900
2022-08-30T04:19:07.800Z,2.700
2022-08-30T04:20:07.137Z,2.599
2022-08-30T04:21:10.317Z,3
2022-08-30T04:22:07.787Z,2.599
2022-08-30T04:24:07.281Z,2.799
2022-08-30T04:25:07.908Z,2.400
2022-08-30T04:26:07.874Z,2.799
2022-08-30T04:27:07.215Z,2.700
2022-08-30T04:28:07.405Z,2.799
2022-08-30T04:29:07.722Z,2.700
2022-08-30T04:30:07.343Z,2.599
2022-08-30T04:31:07.831Z,2.5
2022-08-30T04:35:07.421Z,2.799
2022-08-30T04:36:07.829Z,2.5
2022-08-30T04:37:07.217Z,2.599
2022-08-30T04:38:07.936Z,2.799
2022-08-30T04:39:07.288Z,2.700
2022-08-30T04:40:07.635Z,2.400
2022-08-30T04:41:06.964Z,2.799
2022-08-30T04:42:07.390Z,2.900
2022-08-30T04:43:07.629Z,2.599
2022-08-30T04:44:07.015Z,2.400
2022-08-30T04:45:07.756Z,2.799
2022-08-30T04:46:07.908Z,3
2022-08-30T04:47:07.897Z,2.5
2022-08-30T04:48:07.411Z,2.599
2022-08-30T04:49:07.820Z,2.5
2022-08-30T04:50:07.493Z,2.700
2022-08-30T04:52:07.817Z,2.799
2022-08-30T04:54:07.240Z,2.5
2022-08-30T04:55:07.913Z,2.599
2022-08-30T04:56:07.432Z,2.700
2022-08-30T04:57:07.793Z,2.799
2022-08-30T04:58:07.184Z,2.700
2022-08-30T04:59:07.539Z,2.400
2022-08-30T05:00:08.769Z,2.599
2022-08-30T05:02:10.277Z,2.700
2022-08-30T05:03:07.670Z,2.5
2022-08-30T05:04:07.404Z,2.700
2022-08-30T05:05:08.006Z,2.599
2022-08-30T05:06:07.382Z,2.700
2022-08-30T05:07:07.871Z,2.400
2022-08-30T05:08:07.647Z,2.799
2022-08-30T05:09:07.285Z,2.599
2022-08-30T05:10:11.093Z,2.700
2022-08-30T05:11:07.459Z,3
2022-08-30T05:12:07.989Z,2.900
2022-08-30T05:13:07.539Z,2.400
2022-08-30T05:14:07.880Z,2.5
2022-08-30T05:15:07.796Z,2.700
2022-08-30T05:19:07.299Z,2.900
2022-08-30T05:21:07.614Z,2.599
2022-08-30T05:22:07.516Z,3
2022-08-30T05:23:07.979Z,2.799
2022-08-30T05:24:07.598Z,3
2022-08-30T05:26:07.812Z,2.799
2022-08-30T05:27:07.385Z,2.700
2022-08-30T05:28:07.927Z,2.799
2022-08-30T05:29:07.420Z,2.900
2022-08-30T05:30:08.218Z,2.700
2022-08-30T05:31:07.718Z,2.5
2022-08-30T05:32:08.142Z,2.799
2022-08-30T05:33:07.685Z,2.5
2022-08-30T05:34:07.377Z,2.700
2022-08-30T05:35:08.023Z,2.900
2022-08-30T05:36:07.804Z,3.099
2022-08-30T05:37:07.390Z,3.299
2022-08-30T05:38:07.376Z,3.099
2022-08-30T05:39:07.621Z,2.799
2022-08-30T05:40:11.017Z,3.099
2022-08-30T05:41:11.029Z,2.700
2022-08-30T05:42:07.726Z,3.400
2022-08-30T05:43:08.148Z,2.799
2022-08-30T05:44:07.765Z,2.700
2022-08-30T05:45:07.417Z,2.599
2022-08-30T05:47:08.103Z,2.799
2022-08-30T05:48:07.583Z,3
2022-08-30T05:49:07.188Z,2.900
2022-08-30T05:50:08.254Z,3.099
2022-08-30T05:51:07.511Z,2.900
2022-08-30T05:52:07.196Z,3.099
2022-08-30T05:53:07.526Z,2.900
2022-08-30T05:56:07.498Z,2.799
2022-08-30T05:58:07.391Z,3.200
2022-08-30T05:59:07.066Z,2.799
2022-08-30T06:00:08.545Z,3
2022-08-30T06:02:07.559Z,2.799
2022-08-30T06:03:07.726Z,3.400
2022-08-30T06:04:07.613Z,3.099
2022-08-30T06:05:08.331Z,3
2022-08-30T06:07:09.505Z,2.799
2022-08-30T06:08:07.493Z,3
2022-08-30T06:09:08.131Z,2.799
2022-08-30T06:10:07.794Z,3.099
2022-08-30T06:11:07.949Z,2.5
2022-08-30T06:12:07.979Z,2.599
2022-08-30T06:13:07.685Z,2.799
2022-08-30T06:14:07.171Z,2.5
2022-08-30T06:15:07.857Z,2.400
2022-08-30T06:16:07.257Z,2.900
2022-08-30T06:17:08.062Z,2.599
2022-08-30T06:18:07.538Z,2.5
2022-08-30T06:19:07.352Z,3.200
2022-08-30T06:20:07.369Z,2.700
2022-08-30T06:21:08.390Z,2.400
2022-08-30T06:22:07.471Z,2.700
2022-08-30T06:24:07.440Z,2.400
2022-08-30T06:25:07.980Z,2.799
2022-08-30T06:26:07.945Z,2.700
2022-08-30T06:27:07.274Z,2.400
2022-08-30T06:29:07.978Z,2.5
2022-08-30T06:30:07.706Z,2.799
2022-08-30T06:31:07.331Z,2.400
2022-08-30T06:32:08.122Z,3
2022-08-30T06:33:07.878Z,2.599
2022-08-30T06:34:07.329Z,2.799
2022-08-30T06:35:07.694Z,2.599
2022-08-30T06:37:07.779Z,2.5
2022-08-30T06:38:07.300Z,2.599
2022-08-30T06:40:08.202Z,2.299
2022-08-30T06:41:07.741Z,2.5
2022-08-30T06:42:07.315Z,2.799
2022-08-30T06:43:12.805Z,2.700
2022-08-30T06:44:07.364Z,2.599
2022-08-30T06:45:12.932Z,2.799
2022-08-30T06:46:07.441Z,2.900
2022-08-30T06:47:07.564Z,3.099
2022-08-30T06:48:07.322Z,2.799
2022-08-30T06:49:07.929Z,2.599
2022-08-30T06:50:07.371Z,3
2022-08-30T06:51:07.655Z,2.599
2022-08-30T06:52:07.188Z,2.5
2022-08-30T06:53:07.210Z,2.700
2022-08-30T06:55:07.816Z,2.799
2022-08-30T06:57:08.200Z,2.5
2022-08-30T06:58:07.655Z,2.700
2022-08-30T07:00:08.496Z,2.799
2022-08-30T07:01:07.376Z,3.099
2022-08-30T07:02:07.858Z,3
2022-08-30T07:03:07.465Z,2.900
2022-08-30T07:06:07.214Z,3
2022-08-30T07:07:07.829Z,2.900
2022-08-30T07:08:07.412Z,2.799
2022-08-30T07:09:07.718Z,3.099
2022-08-30T07:10:07.711Z,2.799
2022-08-30T07:11:07.186Z,2.700
2022-08-30T07:12:07.291Z,2.900
2022-08-30T07:13:07.589Z,3.200
2022-08-30T07:14:08.060Z,3
2022-08-30T07:15:07.668Z,2.700
2022-08-30T07:16:07.370Z,3
2022-08-30T07:17:07.489Z,2.799
2022-08-30T07:18:07.432Z,3
2022-08-30T07:19:07.929Z,2.700
2022-08-30T07:20:07.560Z,3.299
2022-08-30T07:21:07.254Z,3.400
2022-08-30T07:22:07.919Z,3.099
2022-08-30T07:23:07.507Z,2.799
2022-08-30T07:24:08.750Z,3
2022-08-30T07:25:07.595Z,2.700
2022-08-30T07:26:07.199Z,2.599
2022-08-30T07:27:07.861Z,2.700
2022-08-30T07:28:07.595Z,2.900
2022-08-30T07:29:07.427Z,2.599
2022-08-30T07:30:08.258Z,2.900
2022-08-30T07:32:07.917Z,2.599
2022-08-30T07:34:07.923Z,2.700
2022-08-30T07:35:07.111Z,2.5
2022-08-30T07:36:07.520Z,2.700
2022-08-30T07:37:07.993Z,2.900
2022-08-30T07:39:07.657Z,2.700
2022-08-30T07:40:07.462Z,2.599
2022-08-30T07:41:07.219Z,2.400
2022-08-30T07:42:07.747Z,2.5
2022-08-30T07:44:07.476Z,2.299
2022-08-30T07:45:07.414Z,2.5
2022-08-30T07:46:08.141Z,2.700
2022-08-30T07:47:07.806Z,2.200
2022-08-30T07:48:07.055Z,2.599
2022-08-30T07:49:11.208Z,2.400
2022-08-30T07:50:07.237Z,2.299
2022-08-30T07:52:07.591Z,2.799
2022-08-30T07:53:10.674Z,2.400
2022-08-30T07:54:07.380Z,2.299
2022-08-30T07:55:07.818Z,2.200
2022-08-30T07:56:07.558Z,2.400
2022-08-30T07:58:07.114Z,2
2022-08-30T08:00:08.194Z,2.299
2022-08-30T08:01:07.039Z,2.5
2022-08-30T08:02:07.831Z,2.200
2022-08-30T08:03:07.420Z,2.799
2022-08-30T08:04:07.256Z,2.299
2022-08-30T08:05:07.446Z,2.5
2022-08-30T08:07:07.887Z,3.099
2022-08-30T08:08:07.232Z,2.400
2022-08-30T08:09:07.591Z,2.200
2022-08-30T08:10:07.733Z,2.099
2022-08-30T08:11:07.472Z,2.5
2022-08-30T08:12:07.842Z,2.599
2022-08-30T08:13:07.280Z,2.099
2022-08-30T08:15:08.724Z,2.200
2022-08-30T08:16:07.758Z,2.099
2022-08-30T08:19:07.482Z,2.200
2022-08-30T08:20:07.287Z,2.099
2022-08-30T08:21:07.548Z,2
2022-08-30T08:22:20.868Z,2.299
2022-08-30T08:25:07.511Z,2
2022-08-30T08:26:07.388Z,2.200
2022-08-30T08:27:07.632Z,2.299
2022-08-30T08:28:07.163Z,2.200
2022-08-30T08:31:07.494Z,2.099
2022-08-30T08:32:07.755Z,2
2022-08-30T08:33:07.496Z,2.400
2022-08-30T08:34:07.470Z,2.299
2022-08-30T08:35:07.515Z,1.799
2022-08-30T08:37:07.555Z,1.899
2022-08-30T08:39:07.844Z,2.099
2022-08-30T08:40:07.430Z,2
2022-08-30T08:41:06.918Z,2.200
2022-08-30T08:42:07.441Z,2.099
2022-08-30T08:43:07.494Z,1.799
2022-08-30T08:44:07.803Z,2.099
2022-08-30T08:45:10.922Z,1.899
2022-08-30T08:46:07.094Z,1.799
2022-08-30T08:47:07.606Z,2.200
2022-08-30T08:48:07.403Z,2.099
2022-08-30T08:51:07.731Z,1.799
2022-08-30T08:52:07.303Z,2.5
2022-08-30T08:53:07.870Z,2.299
2022-08-30T08:54:07.330Z,2.099
2022-08-30T08:55:07.564Z,1.700
2022-08-30T08:56:07.014Z,2.5
2022-08-30T08:57:07.779Z,1.899
2022-08-30T08:58:07.714Z,2.099
2022-08-30T08:59:07.011Z,2.299
2022-08-30T09:00:08.227Z,1.899
2022-08-30T09:01:07.823Z,2.099
2022-08-30T09:03:07.185Z,2.400
2022-08-30T09:04:07.649Z,2.5
2022-08-30T09:05:07.412Z,2.299
2022-08-30T09:06:07.370Z,1.899
2022-08-30T09:07:08.143Z,2.099
2022-08-30T09:08:17.529Z,2.200
2022-08-30T09:09:07.928Z,2.400
2022-08-30T09:11:07.491Z,2
2022-08-30T09:12:12.235Z,2.099
2022-08-30T09:13:07.594Z,2
2022-08-30T09:15:07.922Z,2.799
2022-08-30T09:16:08.987Z,2
2022-08-30T09:17:07.691Z,1.899
2022-08-30T09:18:07.518Z,2.099
2022-08-30T09:19:07.618Z,1.799
2022-08-30T09:20:07.151Z,2.099
2022-08-30T09:21:07.439Z,2.200
2022-08-30T09:22:07.390Z,2.099
2022-08-30T09:23:07.445Z,2.200
2022-08-30T09:24:07.548Z,1.899
2022-08-30T09:26:07.149Z,2.200
2022-08-30T09:27:07.353Z,2.400
2022-08-30T09:28:07.403Z,2.099
2022-08-30T09:30:07.446Z,2
2022-08-30T09:32:25.166Z,2.200
2022-08-30T09:33:07.009Z,2.400
2022-08-30T09:34:07.332Z,1.899
2022-08-30T09:35:07.728Z,2.099
2022-08-30T09:36:07.418Z,2.200
2022-08-30T09:37:07.733Z,2.400
2022-08-30T09:38:07.211Z,2
2022-08-30T09:39:07.334Z,2.299
2022-08-30T09:40:07.465Z,2.200
2022-08-30T09:41:07.069Z,2
2022-08-30T09:42:07.692Z,2.099
2022-08-30T09:43:07.286Z,2.200
2022-08-30T09:44:07.225Z,1.899
2022-08-30T09:45:07.932Z,1.799
2022-08-30T09:46:07.402Z,2
2022-08-30T09:47:07.539Z,1.899
2022-08-30T09:49:07.473Z,2.099
2022-08-30T09:50:07.667Z,1.899
2022-08-30T09:52:07.518Z,2
2022-08-30T09:53:07.640Z,2.200
2022-08-30T09:54:17.025Z,1.799
2022-08-30T09:55:07.798Z,2.099
2022-08-30T09:56:07.350Z,1.799
2022-08-30T09:57:11.669Z,1.899
2022-08-30T09:58:07.619Z,2.200
2022-08-30T09:59:07.497Z,2.299
2022-08-30T10:00:08.142Z,2
2022-08-30T10:01:07.127Z,1.899
2022-08-30T10:02:07.633Z,1.799
2022-08-30T10:03:07.132Z,1.899
2022-08-30T10:05:07.511Z,2.099
2022-08-30T10:06:07.156Z,2.200
2022-08-30T10:07:07.301Z,1.899
2022-08-30T10:08:07.471Z,2
2022-08-30T10:10:07.444Z,2.099
2022-08-30T10:11:07.892Z,1.899
2022-08-30T10:12:07.382Z,2
2022-08-30T10:13:07.310Z,1.799
2022-08-30T10:14:07.593Z,2.099
2022-08-30T10:16:07.391Z,1.899
2022-08-30T10:18:07.520Z,2.099
2022-08-30T10:19:07.216Z,1.799
2022-08-30T10:20:07.460Z,2.099
2022-08-30T10:22:07.672Z,2
2022-08-30T10:25:07.544Z,2.400
2022-08-30T10:26:07.380Z,1.899
2022-08-30T10:28:07.386Z,1.799
2022-08-30T10:29:07.047Z,2
2022-08-30T10:31:07.899Z,1.899
2022-08-30T10:32:07.989Z,1.799
2022-08-30T10:33:07.714Z,2.200
2022-08-30T10:34:07.128Z,2
2022-08-30T10:38:07.414Z,2.200
2022-08-30T10:39:07.311Z,2.099
2022-08-30T10:40:07.331Z,2
2022-08-30T10:41:07.757Z,2.599
2022-08-30T10:42:07.428Z,2
2022-08-30T10:44:07.654Z,2.200
2022-08-30T10:45:07.407Z,2.299
2022-08-30T10:46:07.279Z,1.899
2022-08-30T10:47:07.446Z,2.099
2022-08-30T10:48:07.330Z,2.400
2022-08-30T10:49:07.390Z,2
2022-08-30T10:50:08.214Z,2.099
2022-08-30T10:51:07.559Z,2.400
2022-08-30T10:52:07.242Z,2.099
2022-08-30T10:55:07.056Z,1.899
2022-08-30T10:56:07.409Z,2
2022-08-30T10:57:07.378Z,1.799
2022-08-30T10:58:07.133Z,2.200
2022-08-30T10:59:07.609Z,2.299
2022-08-30T11:01:07.523Z,2.099
2022-08-30T11:03:07.063Z,2.400
2022-08-30T11:04:07.574Z,2
2022-08-30T11:06:07.353Z,2.099
2022-08-30T11:07:09.968Z,2
2022-08-30T11:09:07.593Z,2.099
2022-08-30T11:10:07.703Z,1.899
2022-08-30T11:11:06.982Z,2.200
2022-08-30T11:13:07.809Z,1.899
2022-08-30T11:15:07.832Z,2.299
2022-08-30T11:16:07.675Z,2.200
2022-08-30T11:17:07.559Z,2.099
2022-08-30T11:18:07.102Z,2
2022-08-30T11:20:07.615Z,2.299
2022-08-30T11:21:11.138Z,1.899
2022-08-30T11:22:07.509Z,2
2022-08-30T11:25:10.161Z,2.200
2022-08-30T11:26:07.982Z,2.099
2022-08-30T11:27:07.228Z,1.700
2022-08-30T11:28:07.791Z,2.099
2022-08-30T11:29:07.395Z,2
2022-08-30T11:30:07.805Z,1.899
2022-08-30T11:31:07.808Z,2.099
2022-08-30T11:32:07.929Z,2
2022-08-30T11:37:12.868Z,2.299
2022-08-30T11:38:07.715Z,2.599
2022-08-30T11:39:07.750Z,2.299
2022-08-30T11:40:07.587Z,2.200
2022-08-30T11:41:06.921Z,2.400
2022-08-30T11:42:07.219Z,2
2022-08-30T11:43:07.222Z,2.200
2022-08-30T11:44:06.952Z,2.299
2022-08-30T11:47:07.833Z,2
2022-08-30T11:48:07.741Z,2.099
2022-08-30T11:49:07.440Z,2
2022-08-30T11:50:09.793Z,1.700
2022-08-30T11:51:08.026Z,2.099
2022-08-30T11:52:26.411Z,2
2022-08-30T11:53:07.588Z,2.099
2022-08-30T11:54:07.672Z,2.5
2022-08-30T11:55:07.325Z,2.099
2022-08-30T11:57:08.093Z,1.799
2022-08-30T11:58:07.603Z,2.5
2022-08-30T11:59:07.285Z,2
2022-08-30T12:00:07.737Z,2.200
2022-08-30T12:02:08.100Z,2
2022-08-30T12:03:07.976Z,2.200
2022-08-30T12:04:07.680Z,2.299
2022-08-30T12:07:07.088Z,2.200
2022-08-30T12:08:07.729Z,2.299
2022-08-30T12:09:08.076Z,2.200
2022-08-30T12:11:26.445Z,2.299
2022-08-30T12:12:07.164Z,2.099
2022-08-30T12:13:07.673Z,2.200
2022-08-30T12:14:09.430Z,2.099
2022-08-30T12:15:07.605Z,2.299
2022-08-30T12:16:07.375Z,2.099
2022-08-30T12:19:07.265Z,2.200
2022-08-30T12:20:07.792Z,2
2022-08-30T12:21:07.853Z,2.299
2022-08-30T12:22:07.464Z,2.099
2022-08-30T12:23:07.465Z,2.200
2022-08-30T12:24:07.166Z,2.099
2022-08-30T12:26:07.122Z,1.899
2022-08-30T12:27:07.625Z,2.299
2022-08-30T12:28:07.513Z,2.099
2022-08-30T12:29:07.760Z,2
2022-08-30T12:30:07.318Z,2.200
2022-08-30T12:31:07.420Z,2.099
2022-08-30T12:32:07.629Z,2.400
2022-08-30T12:34:07.608Z,2.200
2022-08-30T12:35:07.348Z,2.099
2022-08-30T12:36:07.048Z,2.200
2022-08-30T12:38:07.359Z,2.299
2022-08-30T12:42:07.468Z,2.099
2022-08-30T12:43:07.771Z,2.299
2022-08-30T12:44:07.472Z,2.200
2022-08-30T12:45:07.779Z,2.299
2022-08-30T12:48:07.156Z,2.400
2022-08-30T12:49:07.088Z,2.200
2022-08-30T12:51:07.840Z,2.099
2022-08-30T12:52:07.247Z,2.299
2022-08-30T12:54:07.519Z,2.5
2022-08-30T12:55:17.400Z,2.200
2022-08-30T12:56:07.334Z,2.400
2022-08-30T12:57:25.467Z,2.200
2022-08-30T12:58:07.604Z,2.599
2022-08-30T12:59:07.537Z,2
2022-08-30T13:00:08.648Z,2.200
2022-08-30T13:01:07.335Z,2.5
2022-08-30T13:02:07.139Z,2.099
2022-08-30T13:04:07.365Z,2.200
2022-08-30T13:05:07.205Z,2.5
2022-08-30T13:06:07.568Z,2.299
2022-08-30T13:07:07.528Z,2
2022-08-30T13:08:07.355Z,2.200
2022-08-30T13:09:07.385Z,2.400
2022-08-30T13:10:07.383Z,2.200
2022-08-30T13:11:08.426Z,2.400
2022-08-30T13:12:07.347Z,2.200
2022-08-30T13:13:06.988Z,2.599
2022-08-30T13:15:07.766Z,2.299
2022-08-30T13:17:07.087Z,2.5
2022-08-30T13:18:07.413Z,2.200
2022-08-30T13:19:07.629Z,2.400
2022-08-30T13:20:07.058Z,2.299
2022-08-30T13:21:07.548Z,2.400
2022-08-30T13:22:07.340Z,2.299
2022-08-30T13:23:07.243Z,2.099
2022-08-30T13:25:07.945Z,2.299
2022-08-30T13:26:07.590Z,2.599
2022-08-30T13:27:07.396Z,2.299
2022-08-30T13:28:07.709Z,2.5
2022-08-30T13:29:10.526Z,2.900
2022-08-30T13:30:07.815Z,2.400
2022-08-30T13:31:07.952Z,2
2022-08-30T13:32:07.942Z,2.099
2022-08-30T13:33:07.562Z,2.299
2022-08-30T13:35:07.419Z,2.099
2022-08-30T13:36:07.817Z,1.899
2022-08-30T13:39:07.574Z,2.200
2022-08-30T13:40:07.525Z,2.400
2022-08-30T13:41:07.069Z,2.299
2022-08-30T13:42:32.769Z,2
2022-08-30T13:43:07.244Z,2.099
2022-08-30T13:44:11.989Z,2.299
2022-08-30T13:45:40.900Z,2
2022-08-30T13:46:07.810Z,2.5
2022-08-30T13:47:34.426Z,2.099
2022-08-30T13:48:07.052Z,2.400
2022-08-30T13:49:43.023Z,3
2022-08-30T13:50:07.781Z,2.299
2022-08-30T13:51:07.979Z,2.200
2022-08-30T13:53:07.259Z,2.5
2022-08-30T13:54:07.888Z,2.299
2022-08-30T13:58:07.681Z,2.5
2022-08-30T14:00:08.175Z,2.299
2022-08-30T14:01:07.397Z,2.5
2022-08-30T14:02:12.565Z,2.400
2022-08-30T14:03:07.451Z,2.200
2022-08-30T14:04:15.859Z,2.299
2022-08-30T14:06:31.727Z,2.5
2022-08-30T14:07:20.008Z,2.299
2022-08-30T14:08:07.352Z,2.099
2022-08-30T14:09:07.301Z,2.5
2022-08-30T14:10:32.409Z,2.400
2022-08-30T14:11:07.697Z,3
2022-08-30T14:12:07.482Z,2.599
2022-08-30T14:13:09.093Z,2.5
2022-08-30T14:14:15.073Z,2
2022-08-30T14:15:07.602Z,2.299
2022-08-30T14:18:07.546Z,2.200
2022-08-30T14:19:07.675Z,2.5
2022-08-30T14:20:07.543Z,2.400
2022-08-30T14:22:07.322Z,2.5
2022-08-30T14:23:10.002Z,2.400
2022-08-30T14:24:07.845Z,2.599
2022-08-30T14:26:07.623Z,2.299
2022-08-30T14:28:07.223Z,2.200
2022-08-30T14:29:09.147Z,2.299
2022-08-30T14:30:07.968Z,2.599
2022-08-30T14:32:07.640Z,2.099
2022-08-30T14:33:07.246Z,2.400
2022-08-30T14:34:07.536Z,2.5
2022-08-30T14:35:07.510Z,2.400
2022-08-30T14:36:12.509Z,2.299
2022-08-30T14:38:07.193Z,2.599
2022-08-30T14:39:08.574Z,2.099
2022-08-30T14:40:07.483Z,2.400
2022-08-30T14:41:07.288Z,2.299
2022-08-30T14:42:07.592Z,2.099
2022-08-30T14:43:07.940Z,3.200
2022-08-30T14:44:07.535Z,2.400
2022-08-30T14:46:07.958Z,2.5
2022-08-30T14:47:07.594Z,2.200
2022-08-30T14:48:11.279Z,2.700
2022-08-30T14:49:07.482Z,2.5
2022-08-30T14:50:08.012Z,2.299
2022-08-30T14:51:07.581Z,2.5
2022-08-30T14:52:07.169Z,2.400
2022-08-30T14:53:07.959Z,2.5
2022-08-30T14:54:07.327Z,2.700
2022-08-30T14:55:08.787Z,2.5
2022-08-30T14:56:07.355Z,2.599
2022-08-30T14:57:07.504Z,2.299
2022-08-30T14:58:07.126Z,2.400
2022-08-30T14:59:07.898Z,2.200
2022-08-30T15:00:07.894Z,2.400
2022-08-30T15:01:07.123Z,2.599
2022-08-30T15:02:07.650Z,2.5
2022-08-30T15:03:07.670Z,2.299
2022-08-30T15:04:07.608Z,2.900
2022-08-30T15:05:08.511Z,2.400
2022-08-30T15:06:07.902Z,2.5
2022-08-30T15:07:10.607Z,2.299
2022-08-30T15:09:07.584Z,2.5
2022-08-30T15:10:07.366Z,2.599
2022-08-30T15:11:07.085Z,2.400
2022-08-30T15:12:07.752Z,2.5
2022-08-30T15:13:07.489Z,2.400
2022-08-30T15:14:07.228Z,2.5
2022-08-30T15:15:07.312Z,2.299
2022-08-30T15:16:07.509Z,2.400
2022-08-30T15:18:07.202Z,2.299
2022-08-30T15:19:08.018Z,2.900
2022-08-30T15:20:10.584Z,2.700
2022-08-30T15:21:07.420Z,2.5
2022-08-30T15:22:07.274Z,2.599
2022-08-30T15:23:07.843Z,2.900
2022-08-30T15:24:07.562Z,2.599
2022-08-30T15:25:07.669Z,2.5
2022-08-30T15:26:08.015Z,2.799
2022-08-30T15:27:07.689Z,3
2022-08-30T15:28:07.484Z,2.5
2022-08-30T15:29:07.593Z,2.799
2022-08-30T15:31:09.346Z,2.599
2022-08-30T15:32:07.060Z,3.099
2022-08-30T15:33:07.460Z,2.799
2022-08-30T15:34:07.649Z,2.5
2022-08-30T15:35:07.822Z,2.400
2022-08-30T15:36:07.480Z,2.5
2022-08-30T15:37:07.831Z,2.299
2022-08-30T15:38:07.345Z,2.700
2022-08-30T15:39:07.635Z,2.299
2022-08-30T15:41:07.038Z,2.599
2022-08-30T15:42:07.443Z,2.299
2022-08-30T15:43:07.746Z,2.200
2022-08-30T15:44:07.027Z,2.900
2022-08-30T15:45:07.698Z,2.700
2022-08-30T15:46:07.066Z,2.5
2022-08-30T15:47:07.802Z,2.599
2022-08-30T15:48:07.317Z,2.5
2022-08-30T15:49:07.168Z,2.599
2022-08-30T15:52:08.370Z,2.700
2022-08-30T15:54:07.445Z,2.400
2022-08-30T15:55:07.866Z,2.700
2022-08-30T15:56:07.640Z,2.299
2022-08-30T15:57:07.225Z,2.799